Terminal Aerodrome Forecast
Issued by NWS Cleveland, OH

Home | Current Version | Previous Version | Graphics & Text | Print | Product List | Glossary On
Versions: 1 2 3 4 5 6 7 8 9 10 11 12 13 14 15 16 17 18 19 20 21
000
FTUS41 KCLE 150200 AAA
TAFCAK
TAF AMD
KCAK 150254Z 1503/1524 VRB03KT P6SM SKC
     FM150900 00000KT P6SM SCT250
      TEMPO 1510/1513 4SM BR
     FM151400 20008KT P6SM SCT100 BKN250
     FM152000 22008KT P6SM BKN060 OVC100
     FM152330 24008KT P6SM -RA OVC045=

USA.gov is the U.S. government's official web portal to all federal, state and local government web resources and services.